Time;durP1;ratioP1;P1;durP2;ratioP2;P2;SDS_P1;SDS_P2;PMS_P1;PMS_P2;Temp;Humidity;BMP_temperature;BMP_pressure;BME280_temperature;BME280_humidity;BME280_pressure;Samples;Min_cycle;Max_cycle;Signal;HPM_P1;HPM_P2
2022/05/23 00:02:01;;;;;;;3.13;1.90;;;17.00;99.90;;;;;;5088255;28;20421;-75
2022/05/23 00:04:47;;;;;;;4.30;2.17;;;16.90;99.90;;;;;;5087778;28;20441;-76
2022/05/23 00:07:36;;;;;;;3.33;2.07;;;16.90;99.90;;;;;;5089667;28;20543;-77
2022/05/23 00:10:22;;;;;;;5.57;2.00;;;16.90;99.90;;;;;;5082637;28;20478;-76
2022/05/23 00:13:08;;;;;;;3.80;1.80;;;16.90;99.90;;;;;;5083049;28;20484;-77
2022/05/23 00:15:55;;;;;;;4.37;2.13;;;16.80;99.90;;;;;;5088872;28;20603;-77
2022/05/23 00:18:40;;;;;;;3.87;1.90;;;16.80;99.90;;;;;;5088102;28;20877;-77
2022/05/23 00:21:26;;;;;;;6.13;2.20;;;16.80;99.90;;;;;;5085765;28;20548;-75
2022/05/23 00:24:13;;;;;;;2.60;1.87;;;16.70;99.90;;;;;;5092648;28;20453;-75
2022/05/23 00:26:59;;;;;;;3.00;1.60;;;16.70;99.90;;;;;;5090992;28;20404;-75
2022/05/23 00:29:45;;;;;;;3.97;2.03;;;16.60;99.90;;;;;;5085221;28;20570;-75
2022/05/23 00:35:36;;;;;;;3.97;2.03;;;16.60;99.90;;;;;;5087727;28;20452;-77
2022/05/23 00:38:22;;;;;;;3.80;1.93;;;16.50;99.90;;;;;;5085610;28;20412;-77
2022/05/23 00:44:25;;;;;;;4.50;1.80;;;16.50;99.90;;;;;;5086615;28;20435;-76
2022/05/23 00:47:19;;;;;;;3.10;1.90;;;16.40;99.90;;;;;;5086892;28;20408;-77
2022/05/23 00:50:07;;;;;;;2.70;1.63;;;16.40;99.90;;;;;;5085002;28;20468;-75
2022/05/23 00:52:57;;;;;;;5.53;2.27;;;16.20;99.90;;;;;;5089031;28;20525;-77
2022/05/23 00:55:47;;;;;;;3.03;1.93;;;16.20;99.90;;;;;;5089662;28;20486;-77
2022/05/23 00:58:39;;;;;;;3.23;1.60;;;16.10;99.90;;;;;;5083587;28;20473;-75
2022/05/23 01:01:26;;;;;;;4.40;1.70;;;16.10;99.90;;;;;;5089944;28;20472;-77
2022/05/23 01:04:12;;;;;;;2.50;1.50;;;16.20;99.90;;;;;;5084701;28;21952;-76
2022/05/23 01:06:59;;;;;;;8.03;1.77;;;16.10;99.90;;;;;;5088135;28;20441;-76
2022/05/23 01:09:45;;;;;;;3.60;1.70;;;16.10;99.90;;;;;;5082949;28;20559;-77
2022/05/23 01:12:31;;;;;;;3.00;1.77;;;16.10;99.90;;;;;;5086854;28;20449;-76
2022/05/23 01:15:20;;;;;;;3.77;1.80;;;16.10;99.90;;;;;;5085349;28;20451;-75
2022/05/23 01:18:06;;;;;;;5.30;1.97;;;16.10;99.90;;;;;;5085717;28;20450;-77
2022/05/23 01:20:55;;;;;;;4.33;1.60;;;16.10;99.90;;;;;;5086585;28;20575;-77
2022/05/23 01:23:48;;;;;;;4.37;1.63;;;16.10;99.90;;;;;;5088794;28;20543;-77
2022/05/23 01:26:35;;;;;;;2.37;1.60;;;16.10;99.90;;;;;;5087783;28;20488;-76
2022/05/23 01:29:22;;;;;;;5.80;1.97;;;16.00;99.90;;;;;;5084429;28;20420;-77
2022/05/23 01:32:08;;;;;;;6.90;2.10;;;16.00;99.90;;;;;;5086252;28;20454;-77
2022/05/23 01:34:54;;;;;;;2.27;1.97;;;15.90;99.90;;;;;;5089739;28;20411;-75
2022/05/23 01:37:40;;;;;;;2.23;1.73;;;15.90;99.90;;;;;;5085187;28;20420;-77
2022/05/23 01:40:26;;;;;;;3.73;2.10;;;15.90;99.90;;;;;;5086406;28;20470;-75
2022/05/23 01:43:13;;;;;;;5.33;2.03;;;15.90;99.90;;;;;;5082841;28;20476;-76
2022/05/23 01:45:59;;;;;;;3.00;1.67;;;15.70;99.90;;;;;;5089543;28;20858;-77
2022/05/23 01:48:44;;;;;;;7.20;2.30;;;15.70;99.90;;;;;;5086289;28;20782;-77
2022/05/23 01:51:30;;;;;;;4.43;2.00;;;15.70;99.90;;;;;;5089779;28;20973;-77
2022/05/23 01:54:16;;;;;;;2.80;1.87;;;15.70;99.90;;;;;;5089722;28;20457;-77
2022/05/23 01:57:02;;;;;;;2.30;1.47;;;15.60;99.90;;;;;;5087852;28;20477;-75
2022/05/23 02:02:52;;;;;;;6.33;1.87;;;15.60;99.90;;;;;;5087941;28;20977;-77
2022/05/23 02:05:37;;;;;;;3.43;1.70;;;15.60;99.90;;;;;;5086673;28;20426;-77
2022/05/23 02:08:23;;;;;;;3.33;2.10;;;15.60;99.90;;;;;;5081281;28;20981;-76
2022/05/23 02:11:09;;;;;;;2.37;1.67;;;15.60;99.90;;;;;;5086653;28;20495;-76
2022/05/23 02:13:55;;;;;;;7.70;2.00;;;15.70;99.90;;;;;;5081021;28;20508;-77
2022/05/23 02:16:42;;;;;;;5.93;2.10;;;15.80;99.90;;;;;;5086206;28;20530;-77
2022/05/23 02:19:31;;;;;;;4.43;2.00;;;15.90;99.90;;;;;;5087208;28;20807;-77
2022/05/23 02:22:17;;;;;;;4.40;2.57;;;15.90;99.90;;;;;;5087613;28;20453;-77
2022/05/23 02:25:03;;;;;;;4.80;3.07;;;15.80;99.90;;;;;;5088457;28;20851;-77
2022/05/23 02:27:48;;;;;;;2.67;1.60;;;15.80;99.90;;;;;;5083415;28;20429;-77
2022/05/23 02:30:34;;;;;;;2.30;1.67;;;15.70;99.90;;;;;;5081915;28;20832;-76
2022/05/23 02:33:21;;;;;;;4.90;2.30;;;15.60;99.90;;;;;;5088850;28;20533;-77
2022/05/23 02:36:08;;;;;;;4.17;2.10;;;15.60;99.90;;;;;;5086525;28;20474;-76
2022/05/23 02:38:53;;;;;;;3.07;2.10;;;15.60;99.90;;;;;;5092005;28;20449;-77
2022/05/23 02:41:39;;;;;;;3.03;2.00;;;15.60;99.90;;;;;;5092213;28;20486;-75
2022/05/23 02:44:25;;;;;;;4.00;2.03;;;15.70;99.90;;;;;;5090994;28;20499;-77
2022/05/23 02:47:11;;;;;;;4.93;2.30;;;15.70;99.90;;;;;;5082981;28;20453;-77
2022/05/23 02:49:58;;;;;;;2.73;2.00;;;15.70;99.90;;;;;;5091972;28;20854;-77
2022/05/23 02:52:45;;;;;;;3.17;2.27;;;15.80;99.90;;;;;;5091378;28;20484;-77
2022/05/23 02:55:30;;;;;;;3.20;2.40;;;15.80;99.90;;;;;;5090877;28;20966;-76
2022/05/23 02:58:16;;;;;;;3.13;2.30;;;15.90;99.90;;;;;;5087470;28;20547;-77
2022/05/23 03:01:02;;;;;;;6.43;2.30;;;16.00;99.90;;;;;;5091472;28;20465;-77
2022/05/23 03:03:46;;;;;;;3.83;2.10;;;16.00;99.90;;;;;;5091525;28;20412;-77
2022/05/23 03:06:33;;;;;;;7.63;2.37;;;16.10;99.90;;;;;;5085130;28;20801;-77
2022/05/23 03:09:19;;;;;;;3.00;1.87;;;16.00;99.90;;;;;;5088091;28;20445;-77
2022/05/23 03:12:06;;;;;;;4.70;2.47;;;16.10;99.90;;;;;;5090404;28;20551;-77
2022/05/23 03:14:52;;;;;;;3.17;2.10;;;16.10;99.90;;;;;;5091501;28;20975;-76
2022/05/23 03:17:38;;;;;;;3.47;2.20;;;16.20;99.90;;;;;;5081537;28;20473;-77
2022/05/23 03:20:23;;;;;;;3.03;2.00;;;16.20;99.90;;;;;;5089485;28;21036;-77
2022/05/23 03:29:18;;;;;;;2.80;2.10;;;16.30;99.90;;;;;;5086785;28;20441;-77
2022/05/23 03:32:05;;;;;;;6.40;2.30;;;16.30;99.90;;;;;;5082196;28;20401;-75
2022/05/23 03:34:51;;;;;;;5.93;2.53;;;16.30;99.90;;;;;;5076938;28;20443;-76
2022/05/23 03:37:37;;;;;;;9.97;2.60;;;16.40;99.90;;;;;;5090452;28;20492;-77
2022/05/23 03:40:24;;;;;;;4.07;1.93;;;16.30;99.90;;;;;;5092233;28;20511;-77
2022/05/23 03:43:10;;;;;;;2.40;2.10;;;16.20;99.90;;;;;;5089263;28;20486;-77
2022/05/23 03:46:04;;;;;;;4.63;2.20;;;16.30;99.90;;;;;;5088929;28;20957;-77
2022/05/23 03:48:50;;;;;;;8.33;2.23;;;16.30;99.90;;;;;;5090283;28;20916;-76
2022/05/23 03:51:37;;;;;;;2.10;1.60;;;16.30;99.90;;;;;;5090255;28;20469;-77
2022/05/23 03:54:22;;;;;;;3.60;2.30;;;16.30;99.90;;;;;;5088152;28;20425;-76
2022/05/23 03:57:10;;;;;;;4.67;2.10;;;16.40;99.90;;;;;;5087898;28;20970;-77
2022/05/23 03:59:55;;;;;;;3.30;2.17;;;16.40;99.90;;;;;;5090073;28;20806;-77
2022/05/23 04:02:41;;;;;;;7.60;2.63;;;16.30;99.90;;;;;;5090208;28;20600;-77
2022/05/23 04:05:27;;;;;;;2.50;2.07;;;16.30;99.90;;;;;;5087005;28;20951;-77
2022/05/23 04:08:13;;;;;;;5.07;2.13;;;16.30;99.90;;;;;;5086932;28;20408;-77
2022/05/23 04:10:58;;;;;;;3.00;2.10;;;16.30;99.90;;;;;;5089225;28;20473;-77
2022/05/23 04:13:45;;;;;;;9.53;2.20;;;16.30;99.90;;;;;;5089695;28;20417;-77
2022/05/23 04:16:31;;;;;;;3.33;2.37;;;16.40;99.90;;;;;;5083463;28;20474;-77
2022/05/23 04:19:18;;;;;;;3.60;2.10;;;16.60;99.90;;;;;;5088836;28;20462;-77
2022/05/23 04:22:04;;;;;;;5.77;3.20;;;16.80;99.90;;;;;;5089624;28;21043;-77
2022/05/23 04:24:50;;;;;;;6.37;3.53;;;16.90;99.90;;;;;;5087832;28;20938;-76
2022/05/23 04:27:36;;;;;;;5.87;4.00;;;17.00;99.90;;;;;;5086973;28;20445;-77
2022/05/23 04:30:23;;;;;;;3.87;1.97;;;17.10;99.90;;;;;;5088749;28;20485;-77
2022/05/23 04:36:12;;;;;;;4.70;2.60;;;17.10;99.90;;;;;;5086918;28;20542;-77
2022/05/23 04:38:58;;;;;;;5.23;2.33;;;17.20;99.90;;;;;;5089383;28;20641;-77
2022/05/23 04:41:43;;;;;;;3.90;2.80;;;17.20;99.90;;;;;;5087553;28;20459;-76
2022/05/23 04:44:29;;;;;;;4.40;2.70;;;17.20;99.90;;;;;;5085554;28;20985;-77
2022/05/23 04:50:25;;;;;;;9.60;2.60;;;17.40;99.90;;;;;;5036843;28;20478;-76
2022/05/23 04:53:10;;;;;;;8.40;3.70;;;17.40;99.90;;;;;;5086340;28;20454;-77
2022/05/23 04:55:57;;;;;;;9.20;3.90;;;17.40;99.90;;;;;;5083172;28;20500;-76
2022/05/23 04:58:43;;;;;;;5.60;4.27;;;17.30;99.90;;;;;;5088176;28;20433;-77
2022/05/23 05:01:28;;;;;;;10.80;4.07;;;17.30;99.90;;;;;;5085139;28;20453;-77
2022/05/23 05:04:16;;;;;;;5.73;3.73;;;17.20;99.90;;;;;;5087862;28;20573;-77
2022/05/23 05:07:02;;;;;;;5.73;3.90;;;17.10;99.90;;;;;;5087529;28;20793;-77
2022/05/23 05:09:47;;;;;;;11.23;3.80;;;17.00;99.90;;;;;;5084946;28;21341;-76
2022/05/23 05:12:33;;;;;;;5.27;3.60;;;17.00;99.90;;;;;;5088872;28;20437;-77
2022/05/23 05:15:19;;;;;;;6.73;4.43;;;17.00;99.90;;;;;;5079256;28;20459;-77
2022/05/23 05:18:05;;;;;;;8.00;4.43;;;16.90;99.90;;;;;;5090826;28;20477;-77
2022/05/23 05:20:52;;;;;;;8.30;5.80;;;17.00;99.90;;;;;;5092083;28;20464;-78
2022/05/23 05:23:38;;;;;;;9.33;4.43;;;16.90;99.90;;;;;;5082255;28;20583;-78
2022/05/23 05:26:25;;;;;;;8.50;5.10;;;16.90;99.90;;;;;;5086458;28;20783;-77
2022/05/23 05:29:10;;;;;;;8.50;4.80;;;16.90;99.90;;;;;;5073907;28;20430;-78
2022/05/23 05:32:02;;;;;;;7.13;4.80;;;16.90;99.90;;;;;;5074192;28;20947;-76
2022/05/23 05:34:52;;;;;;;9.07;4.80;;;16.90;99.90;;;;;;5084961;28;20515;-76
2022/05/23 05:37:44;;;;;;;6.20;5.10;;;17.00;99.90;;;;;;5077099;28;20490;-77
2022/05/23 05:40:32;;;;;;;12.03;4.80;;;17.00;99.90;;;;;;5082028;28;20485;-77
2022/05/23 05:43:21;;;;;;;12.20;4.93;;;17.00;99.90;;;;;;5091945;28;20454;-76
2022/05/23 05:46:13;;;;;;;6.57;4.40;;;16.90;99.90;;;;;;5088638;28;20419;-77
2022/05/23 05:49:01;;;;;;;22.60;14.27;;;16.90;99.90;;;;;;5094136;28;20422;-77
2022/05/23 05:51:49;;;;;;;8.60;5.57;;;16.90;99.90;;;;;;5092959;28;20920;-76
2022/05/23 05:54:36;;;;;;;6.73;3.87;;;16.90;99.90;;;;;;5083970;28;20432;-77
2022/05/23 05:57:24;;;;;;;4.13;3.43;;;16.90;99.90;;;;;;5093852;28;20477;-77
2022/05/23 06:00:11;;;;;;;7.10;3.77;;;17.10;99.90;;;;;;5093878;28;20448;-78
2022/05/23 06:02:56;;;;;;;6.93;3.20;;;17.10;99.90;;;;;;5092019;28;20458;-77
2022/05/23 06:11:47;;;;;;;4.87;2.90;;;17.30;99.90;;;;;;5074882;28;20465;-77
2022/05/23 06:14:32;;;;;;;6.47;3.40;;;17.40;99.90;;;;;;5083471;28;20505;-77
2022/05/23 06:17:18;;;;;;;7.60;3.40;;;17.50;99.90;;;;;;5077243;28;20436;-78
2022/05/23 06:20:05;;;;;;;4.80;3.50;;;17.60;99.90;;;;;;5076304;28;20577;-77
2022/05/23 06:22:51;;;;;;;4.00;2.67;;;17.60;99.90;;;;;;5084499;28;20474;-77
2022/05/23 06:25:37;;;;;;;3.80;2.80;;;17.60;99.90;;;;;;5092554;28;20551;-78
2022/05/23 06:28:24;;;;;;;5.47;2.63;;;17.50;99.90;;;;;;5098321;28;20441;-77
2022/05/23 06:31:12;;;;;;;3.70;2.90;;;17.60;99.90;;;;;;5099397;28;20449;-77
2022/05/23 06:33:57;;;;;;;5.07;3.00;;;17.80;99.90;;;;;;5089253;28;20449;-77
2022/05/23 06:36:43;;;;;;;5.67;2.77;;;17.90;99.90;;;;;;5080741;28;20490;-77
2022/05/23 06:39:29;;;;;;;3.37;2.60;;;18.10;99.90;;;;;;5090001;28;20449;-77
2022/05/23 06:42:15;;;;;;;4.43;2.57;;;18.20;99.90;;;;;;5096205;28;20584;-76
2022/05/23 06:45:04;;;;;;;5.77;3.20;;;18.40;99.90;;;;;;5088592;28;20426;-77
2022/05/23 06:47:49;;;;;;;3.40;2.30;;;18.50;99.90;;;;;;5097629;28;20889;-77
2022/05/23 06:50:35;;;;;;;10.70;2.70;;;18.70;99.90;;;;;;5097474;28;20442;-76
2022/05/23 06:53:22;;;;;;;7.07;2.73;;;18.70;99.90;;;;;;5091244;28;20523;-76
2022/05/23 06:56:08;;;;;;;4.20;2.53;;;18.90;99.90;;;;;;5078395;28;20415;-77
2022/05/23 06:58:54;;;;;;;3.83;2.13;;;19.00;99.90;;;;;;5085322;28;20422;-75
2022/05/23 07:01:41;;;;;;;6.07;2.27;;;19.10;99.90;;;;;;5093259;28;20472;-76
2022/05/23 07:12:19;;;;;;;5.17;2.50;;;19.10;99.90;;;;;;5079270;28;21043;-75
2022/05/23 07:13:45;;;;;;;3.90;2.40;;;19.50;99.90;;;;;;5088023;28;20441;-75
2022/05/23 07:16:32;;;;;;;3.90;2.20;;;19.70;99.90;;;;;;5097682;28;20425;-77
2022/05/23 07:19:19;;;;;;;7.57;2.37;;;19.80;99.90;;;;;;5097538;28;20425;-77
2022/05/23 07:22:05;;;;;;;4.17;2.03;;;19.90;99.90;;;;;;5091403;28;20543;-77
2022/05/23 07:24:51;;;;;;;10.60;2.90;;;20.10;99.90;;;;;;5089736;28;20915;-77
2022/05/23 07:27:36;;;;;;;6.50;2.80;;;20.20;99.90;;;;;;5097742;28;20414;-76
2022/05/23 07:30:22;;;;;;;7.10;2.03;;;20.30;99.90;;;;;;5097605;28;20509;-76
2022/05/23 07:33:07;;;;;;;3.80;2.17;;;20.40;99.90;;;;;;5085215;28;20465;-76
2022/05/23 07:35:56;;;;;;;4.43;2.40;;;20.50;99.90;;;;;;5076274;28;20998;-77
2022/05/23 07:38:42;;;;;;;6.53;2.63;;;20.50;99.90;;;;;;5089261;28;21171;-77
2022/05/23 07:41:28;;;;;;;11.53;2.70;;;20.50;99.90;;;;;;5094847;28;20510;-75
2022/05/23 07:44:14;;;;;;;4.70;1.97;;;20.60;99.90;;;;;;5086830;28;20437;-77
2022/05/23 07:47:00;;;;;;;4.03;2.00;;;20.60;99.90;;;;;;5096902;28;20561;-76
2022/05/23 07:49:47;;;;;;;4.70;1.93;;;20.60;99.90;;;;;;5096677;28;20445;-77
2022/05/23 07:52:34;;;;;;;4.13;2.30;;;20.50;99.90;;;;;;5091146;28;20464;-76
2022/05/23 08:01:29;;;;;;;3.90;2.37;;;20.50;99.90;;;;;;5090404;28;20466;-77
2022/05/23 08:04:16;;;;;;;3.53;2.03;;;20.60;99.90;;;;;;5084836;28;20473;-77
2022/05/23 08:07:02;;;;;;;4.03;2.40;;;20.60;99.90;;;;;;5080888;28;20492;-76
2022/05/23 08:09:49;;;;;;;4.80;2.13;;;20.70;99.90;;;;;;5076075;28;20946;-77
2022/05/23 08:12:35;;;;;;;7.07;2.40;;;20.70;99.90;;;;;;5095583;22;20497;-71
2022/05/23 08:15:21;;;;;;;7.47;2.80;;;20.60;99.90;;;;;;5072768;28;20506;-69
2022/05/23 08:18:08;;;;;;;5.60;2.47;;;20.60;99.90;;;;;;5072251;28;20943;-69
2022/05/23 08:20:54;;;;;;;3.40;1.97;;;20.70;99.90;;;;;;5071471;28;20524;-69
2022/05/23 08:23:41;;;;;;;3.40;2.27;;;20.80;99.90;;;;;;5062322;28;20430;-69
2022/05/23 08:26:29;;;;;;;5.90;2.03;;;21.00;99.90;;;;;;5068433;28;20438;-69
2022/05/23 08:29:15;;;;;;;3.80;1.97;;;21.10;99.90;;;;;;5071872;28;20488;-69
2022/05/23 08:32:01;;;;;;;3.87;2.07;;;21.30;99.90;;;;;;5063874;28;20474;-69
2022/05/23 08:34:47;;;;;;;2.40;1.70;;;21.40;99.90;;;;;;5067461;28;21033;-69
2022/05/23 08:37:33;;;;;;;2.87;1.73;;;21.40;99.90;;;;;;5069370;28;20470;-69
2022/05/23 08:40:19;;;;;;;3.33;1.83;;;21.50;99.90;;;;;;5070487;28;20422;-69
2022/05/23 08:43:07;;;;;;;4.83;2.30;;;21.50;99.90;;;;;;5062135;28;20427;-69
2022/05/23 08:45:56;;;;;;;2.83;1.63;;;21.70;99.90;;;;;;5051433;28;20783;-69
2022/05/23 08:48:44;;;;;;;3.07;1.70;;;21.80;99.90;;;;;;5051477;28;20471;-69
2022/05/23 08:51:37;;;;;;;7.40;1.53;;;21.80;99.90;;;;;;5063274;28;20504;-69
2022/05/23 08:54:26;;;;;;;3.23;1.80;;;21.80;99.90;;;;;;5061208;28;20415;-69
2022/05/23 08:57:26;;;;;;;6.07;2.20;;;21.70;99.90;;;;;;5051195;28;20420;-69
2022/05/23 09:00:20;;;;;;;3.80;2.10;;;21.80;98.90;;;;;;5053620;28;20824;-69
2022/05/23 09:03:10;;;;;;;5.10;2.07;;;21.70;96.30;;;;;;5051517;28;20787;-69
2022/05/23 09:05:59;;;;;;;4.73;2.30;;;21.70;97.50;;;;;;5055608;28;20798;-69
2022/05/23 09:08:50;;;;;;;4.20;2.17;;;21.80;96.80;;;;;;5071186;28;20518;-69
2022/05/23 09:11:38;;;;;;;4.30;2.70;;;21.90;96.00;;;;;;5061135;28;20491;-69
2022/05/23 09:14:24;;;;;;;3.73;2.10;;;22.00;94.60;;;;;;5069659;28;20789;-69
2022/05/23 09:17:18;;;;;;;4.17;2.60;;;21.90;93.90;;;;;;5070759;28;20800;-71
2022/05/23 09:20:08;;;;;;;4.17;2.40;;;21.80;91.40;;;;;;5067989;28;20458;-71
2022/05/23 09:22:58;;;;;;;4.53;2.00;;;21.80;91.90;;;;;;5060385;28;20443;-71
2022/05/23 09:25:43;;;;;;;4.37;2.30;;;21.80;93.20;;;;;;5059096;28;20828;-69
2022/05/23 09:28:34;;;;;;;4.60;2.20;;;21.90;93.00;;;;;;5050728;28;20427;-69
2022/05/23 09:31:31;;;;;;;3.90;2.50;;;21.80;93.30;;;;;;5061639;28;20470;-69
2022/05/23 09:34:35;;;;;;;4.83;2.17;;;21.90;94.70;;;;;;5061819;28;20431;-69
2022/05/23 09:37:24;;;;;;;5.60;2.90;;;22.20;97.50;;;;;;5064458;28;20453;-68
2022/05/23 09:40:21;;;;;;;7.17;4.10;;;22.40;99.90;;;;;;5061673;28;20832;-69
2022/05/23 09:49:30;;;;;;;5.57;2.90;;;22.70;99.00;;;;;;5064186;28;20495;-69
2022/05/23 09:52:25;;;;;;;5.63;2.97;;;22.70;99.00;;;;;;5068596;28;20458;-68
2022/05/23 09:55:14;;;;;;;6.30;2.90;;;22.80;99.50;;;;;;5066216;28;20438;-69
2022/05/23 09:58:02;;;;;;;9.33;3.57;;;22.90;99.40;;;;;;5065732;28;21232;-70
2022/05/23 10:01:02;;;;;;;9.70;4.80;;;22.90;96.20;;;;;;5064246;28;22254;-69
2022/05/23 10:03:50;;;;;;;8.33;3.27;;;23.00;97.30;;;;;;5070287;28;20462;-70
2022/05/23 10:06:40;;;;;;;5.67;3.20;;;23.10;97.20;;;;;;5071205;28;20450;-72
2022/05/23 10:09:31;;;;;;;5.30;2.93;;;23.30;94.70;;;;;;5067193;28;20423;-72
2022/05/23 10:12:22;;;;;;;3.30;2.30;;;23.40;95.90;;;;;;5066862;28;20507;-71
2022/05/23 10:15:15;;;;;;;14.63;2.60;;;23.50;88.50;;;;;;5065029;28;20443;-72
2022/05/23 10:18:03;;;;;;;7.73;3.10;;;23.50;89.10;;;;;;5071570;28;20516;-71
2022/05/23 10:20:49;;;;;;;5.80;2.77;;;23.60;84.20;;;;;;5064452;28;20470;-72
2022/05/23 10:23:35;;;;;;;4.57;2.30;;;23.60;85.30;;;;;;5068171;28;20457;-72
2022/05/23 10:26:25;;;;;;;5.07;2.30;;;23.70;85.90;;;;;;5067871;28;20455;-72
2022/05/23 10:29:20;;;;;;;5.03;2.67;;;23.80;85.00;;;;;;5066879;28;20443;-71
2022/05/23 10:32:09;;;;;;;6.57;2.93;;;23.90;82.00;;;;;;5062978;28;20525;-71
2022/05/23 10:35:02;;;;;;;4.87;2.90;;;24.00;91.30;;;;;;5070055;28;20438;-72
2022/05/23 10:37:50;;;;;;;3.47;2.27;;;24.30;90.90;;;;;;5069478;28;20475;-71
2022/05/23 10:43:52;;;;;;;6.77;3.27;;;24.50;79.90;;;;;;5069572;28;20496;-71
2022/05/23 10:46:40;;;;;;;3.63;2.70;;;24.50;75.90;;;;;;5068380;28;20935;-69
2022/05/23 10:49:32;;;;;;;6.30;2.87;;;24.50;85.50;;;;;;5067033;28;20455;-69
2022/05/23 10:52:26;;;;;;;5.00;2.73;;;24.60;84.40;;;;;;5066704;28;20490;-69
2022/05/23 10:55:19;;;;;;;8.13;3.23;;;24.40;83.70;;;;;;5066168;28;20439;-69
2022/05/23 10:58:17;;;;;;;7.50;2.60;;;24.30;80.60;;;;;;5066345;28;20504;-69
2022/05/23 11:01:22;;;;;;;4.80;2.70;;;24.20;81.20;;;;;;5064021;28;21090;-69
2022/05/23 11:04:17;;;;;;;6.97;2.80;;;24.10;83.40;;;;;;5066654;28;20457;-69
2022/05/23 11:07:19;;;;;;;5.97;3.10;;;24.10;85.90;;;;;;5068921;28;20805;-69
2022/05/23 11:10:15;;;;;;;8.67;3.03;;;24.10;82.60;;;;;;5067092;28;20801;-69
2022/05/23 11:13:12;;;;;;;8.20;3.40;;;24.00;84.10;;;;;;5068980;28;20474;-70
2022/05/23 11:16:13;;;;;;;4.27;2.40;;;24.00;86.00;;;;;;5070170;28;21030;-69
2022/05/23 11:19:23;;;;;;;4.40;2.60;;;23.90;85.30;;;;;;5066960;28;20611;-70
2022/05/23 11:22:15;;;;;;;3.70;3.00;;;23.90;88.20;;;;;;5068097;28;20511;-70
2022/05/23 11:25:13;;;;;;;7.10;2.90;;;23.90;89.20;;;;;;5069271;28;20501;-69
2022/05/23 11:34:27;;;;;;;5.30;2.97;;;23.70;90.60;;;;;;5064263;28;20459;-69
2022/05/23 11:41:00;;;;;;;8.50;3.30;;;23.70;95.30;;;;;;5066358;28;20967;-69
2022/05/23 11:43:46;;;;;;;3.80;2.67;;;23.70;96.50;;;;;;5067098;28;20574;-69
2022/05/23 11:47:09;;;;;;;3.70;2.93;;;23.60;96.20;;;;;;5065726;28;20593;-70
2022/05/23 11:50:19;;;;;;;7.30;3.57;;;23.60;96.10;;;;;;5063034;28;20455;-69
2022/05/23 11:53:11;;;;;;;9.23;3.37;;;23.50;96.30;;;;;;5067471;28;20461;-69
2022/05/23 11:56:09;;;;;;;8.53;3.10;;;23.50;95.50;;;;;;5068995;28;20505;-69
2022/05/23 11:58:56;;;;;;;7.30;3.20;;;23.50;97.40;;;;;;5066458;28;20470;-69
2022/05/23 12:01:41;;;;;;;5.20;3.47;;;23.40;97.80;;;;;;5065962;28;21014;-69
2022/05/23 12:04:28;;;;;;;8.77;3.43;;;23.40;96.40;;;;;;5065558;28;20438;-70
2022/05/23 12:07:58;;;;;;;6.50;3.63;;;23.40;97.40;;;;;;5064862;28;20951;-69
2022/05/23 12:10:58;;;;;;;6.57;3.50;;;23.40;96.40;;;;;;5067971;28;20446;-69
2022/05/23 12:13:48;;;;;;;4.97;3.63;;;23.30;97.10;;;;;;5068097;28;20466;-69
2022/05/23 12:16:41;;;;;;;10.30;3.20;;;23.30;96.60;;;;;;5065381;28;20540;-70
2022/05/23 12:19:53;;;;;;;9.50;3.23;;;23.30;99.10;;;;;;5062322;28;20484;-70
2022/05/23 12:23:09;;;;;;;4.20;3.30;;;23.30;98.60;;;;;;5065883;28;20463;-70
2022/05/23 12:26:07;;;;;;;8.10;3.70;;;23.20;98.10;;;;;;5066379;28;20525;-69
2022/05/23 12:28:54;;;;;;;8.20;4.30;;;23.20;99.70;;;;;;5062398;28;20455;-70
2022/05/23 12:32:24;;;;;;;4.43;3.50;;;23.20;98.90;;;;;;5064390;28;20511;-70
2022/05/23 12:35:13;;;;;;;13.40;3.80;;;23.10;98.90;;;;;;5065707;28;20528;-70
2022/05/23 12:38:09;;;;;;;8.03;3.20;;;23.10;99.30;;;;;;5067200;28;20439;-69
2022/05/23 12:41:07;;;;;;;6.00;4.70;;;23.00;99.10;;;;;;5062753;28;20927;-68
2022/05/23 12:44:17;;;;;;;5.90;3.73;;;23.00;99.90;;;;;;5058082;28;20810;-71
2022/05/23 12:47:16;;;;;;;5.50;3.30;;;22.90;99.90;;;;;;5054872;28;20451;-71
2022/05/23 12:50:16;;;;;;;7.03;3.70;;;22.80;99.90;;;;;;5060337;28;20591;-68
2022/05/23 12:53:29;;;;;;;10.00;3.60;;;22.80;99.90;;;;;;5068558;28;20470;-69
2022/05/23 12:56:42;;;;;;;5.93;3.57;;;22.90;99.90;;;;;;5051181;28;20487;-69
2022/05/23 12:59:48;;;;;;;7.23;3.30;;;23.00;99.90;;;;;;5060208;28;20600;-69
2022/05/23 13:02:39;;;;;;;5.93;3.33;;;23.10;99.90;;;;;;5059494;28;20548;-70
2022/05/23 13:05:38;;;;;;;5.50;3.63;;;23.20;99.90;;;;;;5071400;28;20775;-69
2022/05/23 13:08:28;;;;;;;5.30;2.90;;;23.20;99.90;;;;;;5060559;28;20908;-69
2022/05/23 13:11:19;;;;;;;7.70;4.20;;;23.10;99.90;;;;;;5051372;28;20514;-68
2022/05/23 13:14:05;;;;;;;7.70;3.67;;;23.00;99.90;;;;;;5050794;28;20491;-70
2022/05/23 13:16:56;;;;;;;6.50;3.00;;;23.10;99.90;;;;;;5055030;28;20417;-70
2022/05/23 13:22:54;;;;;;;8.77;4.00;;;23.20;99.90;;;;;;5057081;28;20473;-69
2022/05/23 13:25:40;;;;;;;5.10;3.33;;;23.10;99.00;;;;;;5061320;28;20922;-69
2022/05/23 13:28:26;;;;;;;8.73;3.37;;;23.00;97.20;;;;;;5063137;28;20459;-70
2022/05/23 13:31:27;;;;;;;8.17;3.67;;;23.10;98.70;;;;;;5067728;28;20477;-69
2022/05/23 13:34:16;;;;;;;10.60;3.70;;;23.00;97.50;;;;;;5051020;28;20925;-69
2022/05/23 13:37:03;;;;;;;7.07;3.53;;;23.10;99.10;;;;;;5056107;28;20450;-69
2022/05/23 13:39:50;;;;;;;7.20;3.23;;;23.00;98.30;;;;;;5059187;28;20598;-69
2022/05/23 13:42:36;;;;;;;7.77;2.77;;;23.00;98.20;;;;;;5058701;28;20470;-69
2022/05/23 13:45:26;;;;;;;12.93;3.50;;;23.10;98.20;;;;;;5068967;28;20445;-68
2022/05/23 13:48:17;;;;;;;6.87;3.23;;;23.10;98.70;;;;;;5063490;28;20446;-69
2022/05/23 13:51:10;;;;;;;6.50;2.90;;;23.30;98.80;;;;;;5068725;28;20462;-69
2022/05/23 13:54:02;;;;;;;6.97;3.23;;;23.50;98.80;;;;;;5059461;28;20894;-69
2022/05/23 13:56:54;;;;;;;7.53;2.87;;;23.80;93.90;;;;;;5056061;28;20849;-70
2022/05/23 13:59:44;;;;;;;8.87;3.50;;;23.90;94.10;;;;;;5061984;28;20838;-69
2022/05/23 14:02:36;;;;;;;6.37;2.83;;;24.20;91.80;;;;;;5063354;28;20473;-69
2022/05/23 14:05:24;;;;;;;11.10;3.13;;;24.30;90.10;;;;;;5063131;28;20577;-71
2022/05/23 14:08:11;;;;;;;4.80;2.60;;;24.30;89.10;;;;;;5066149;28;20451;-69
2022/05/23 14:10:56;;;;;;;7.10;3.37;;;24.10;88.10;;;;;;5064534;28;20411;-69
2022/05/23 14:13:44;;;;;;;5.90;3.23;;;24.10;87.90;;;;;;5061743;28;20596;-69
2022/05/23 14:16:29;;;;;;;6.40;3.27;;;24.10;89.90;;;;;;5060821;28;20454;-70
2022/05/23 14:19:23;;;;;;;10.83;3.63;;;24.20;90.40;;;;;;5064594;28;20544;-70
2022/05/23 14:22:12;;;;;;;10.07;3.00;;;24.10;88.40;;;;;;5065575;28;20462;-70
2022/05/23 14:25:00;;;;;;;7.40;3.10;;;24.40;90.20;;;;;;5066617;28;21213;-69
2022/05/23 14:27:47;;;;;;;6.53;3.03;;;24.80;90.60;;;;;;5058587;28;20471;-69
2022/05/23 14:30:37;;;;;;;11.50;2.60;;;25.10;88.10;;;;;;5064310;28;20570;-70
2022/05/23 14:33:26;;;;;;;5.43;2.93;;;25.30;81.30;;;;;;5065293;28;20453;-69
2022/05/23 14:36:21;;;;;;;4.90;2.83;;;25.50;82.10;;;;;;5066590;28;20789;-69
2022/05/23 14:39:16;;;;;;;9.60;3.70;;;25.80;81.80;;;;;;5068700;28;20831;-69
2022/05/23 14:42:28;;;;;;;6.77;3.07;;;25.90;77.60;;;;;;5064239;28;20924;-69
2022/05/23 14:45:24;;;;;;;5.63;2.90;;;26.00;76.90;;;;;;5064126;28;20972;-69
2022/05/23 14:48:23;;;;;;;8.27;2.87;;;26.10;73.00;;;;;;5067026;28;20565;-68
2022/05/23 14:51:14;;;;;;;7.50;3.70;;;26.00;69.60;;;;;;5065626;28;20474;-70
2022/05/23 14:57:10;;;;;;;5.83;2.83;;;26.20;69.70;;;;;;5063101;28;20484;-70
2022/05/23 15:03:01;;;;;;;16.63;3.90;;;26.10;65.70;;;;;;5066012;28;20823;-69
2022/05/23 15:05:48;;;;;;;7.30;2.90;;;25.90;66.70;;;;;;5063619;28;20526;-69
2022/05/23 15:08:33;;;;;;;11.27;4.03;;;26.00;70.00;;;;;;5066038;28;20512;-68
2022/05/23 15:11:25;;;;;;;9.10;3.27;;;26.10;66.90;;;;;;5065846;28;20512;-69
2022/05/23 15:14:14;;;;;;;8.77;3.20;;;26.10;68.20;;;;;;5067717;28;20429;-68
2022/05/23 15:16:59;;;;;;;12.00;3.60;;;26.10;66.70;;;;;;5065202;28;20520;-69
2022/05/23 15:19:45;;;;;;;9.10;2.90;;;26.30;69.20;;;;;;5065369;28;20471;-69
2022/05/23 15:22:32;;;;;;;9.63;3.70;;;26.50;67.30;;;;;;5064775;28;20471;-68
2022/05/23 15:25:18;;;;;;;13.63;4.17;;;26.50;65.00;;;;;;5064985;28;20541;-69
2022/05/23 15:28:07;;;;;;;8.40;3.60;;;26.60;66.40;;;;;;5064899;28;20816;-69
2022/05/23 15:30:53;;;;;;;8.57;3.57;;;26.30;66.30;;;;;;5063165;28;20809;-69
2022/05/23 15:33:39;;;;;;;6.23;3.10;;;26.30;66.10;;;;;;5065879;28;20803;-70
2022/05/23 15:36:25;;;;;;;8.80;3.00;;;26.20;65.60;;;;;;5067998;28;20445;-69
2022/05/23 15:39:13;;;;;;;11.53;3.47;;;26.10;66.90;;;;;;5064839;28;20467;-68
2022/05/23 15:41:58;;;;;;;29.40;4.67;;;26.10;67.00;;;;;;5063213;28;20483;-69
2022/05/23 15:44:44;;;;;;;13.57;4.40;;;25.90;68.70;;;;;;5060271;28;20513;-68
2022/05/23 15:47:32;;;;;;;9.70;3.37;;;26.10;67.80;;;;;;5063085;28;20472;-69
2022/05/23 15:50:20;;;;;;;8.97;3.77;;;26.00;69.20;;;;;;5066926;28;20434;-70